Pagina principale
METAR-TAF:

METAR-TAF

Aeroporti :

Flores, Azzorre, Portogallo

latitudine: 39-27N, longitudine: 031-08W, altezza: 28 m

Osservazione

Il bollettino è stato emesso 12 ore e 24 minuti fa, alle 18:00 UTC
Vento 9 kt da nord
Temperature 20°C
Umidità 68%
Pressione 1031 hPa
Visibilità 10 km o più
Poco nuvoloso ad un'altezza di 2800 ft
Nuvoloso ad un'altezza di 4500 ft

METAR: LPFL 261800Z 36009KT 9999 FEW028 BKN045 20/14 Q1031

Ora: 06:24 (06:24 UTC)


TAF: mancante

Osservazioni e previsioni meteorologiche di più di 4000 aeroporti (messaggi METAR e TAF).

Le stazioni disponibili sono rappresentate dai dischi gialli e rossi sulla carta.

Puntare il mouse per vedere il nome della stazione.

Clicca sopra per visualizzare le osservazioni e previsioni meteorologiche.

Per cambiare la mappa : fare clic sui pulsanti verdi con una croce nera per ingrandire, il pulsante verde con un trattino per diminuire, o sulla freccia verde per le mappe adiacenti.


METAR-TAF: